Time;durP1;ratioP1;P1;durP2;ratioP2;P2;SDS_P1;SDS_P2;PMS_P1;PMS_P2;Temp;Humidity;BMP_temperature;BMP_pressure;BME280_temperature;BME280_humidity;BME280_pressure;Samples;Min_cycle;Max_cycle;Signal;HPM_P1;HPM_P2
2023/11/24 00:00:06;;;;;;;9.87;7.30;;;4.40;99.90;;;;;;4878637;29;20124;-84
2023/11/24 00:02:32;;;;;;;11.70;7.57;;;4.50;99.90;;;;;;4892102;29;20037;-84
2023/11/24 00:04:57;;;;;;;11.20;6.20;;;4.50;99.90;;;;;;4894362;29;20032;-85
2023/11/24 00:07:23;;;;;;;8.50;5.80;;;4.60;99.90;;;;;;4879513;29;20041;-84
2023/11/24 00:09:49;;;;;;;7.40;4.47;;;4.70;99.90;;;;;;4869614;29;20041;-84
2023/11/24 00:12:14;;;;;;;7.13;4.30;;;4.90;99.90;;;;;;4872323;29;20029;-85
2023/11/24 00:14:40;;;;;;;5.80;4.00;;;5.20;99.90;;;;;;4874658;29;20294;-86
2023/11/24 00:17:06;;;;;;;5.23;3.50;;;5.30;99.90;;;;;;4875843;29;20032;-84
2023/11/24 00:19:32;;;;;;;4.40;3.20;;;5.40;99.90;;;;;;4875255;29;20024;-83
2023/11/24 00:21:57;;;;;;;5.10;3.50;;;5.60;99.90;;;;;;4875149;29;20033;-83
2023/11/24 00:24:23;;;;;;;4.63;3.23;;;5.70;99.90;;;;;;4875088;29;20036;-84
2023/11/24 00:26:50;;;;;;;5.67;3.10;;;5.80;99.90;;;;;;4875470;29;20025;-84
2023/11/24 00:29:16;;;;;;;7.33;3.20;;;5.80;99.90;;;;;;4874262;29;20068;-84
2023/11/24 00:31:41;;;;;;;5.80;3.20;;;5.90;99.90;;;;;;4874549;29;20059;-85
2023/11/24 00:34:07;;;;;;;5.53;3.20;;;5.90;99.90;;;;;;4873982;29;20029;-85
2023/11/24 00:36:33;;;;;;;5.40;2.63;;;5.90;99.90;;;;;;4872513;29;20029;-84
2023/11/24 00:38:59;;;;;;;4.50;2.80;;;6.00;99.90;;;;;;4874177;29;21221;-83
2023/11/24 00:41:27;;;;;;;4.83;2.30;;;6.10;99.90;;;;;;4874679;29;20029;-84
2023/11/24 00:43:54;;;;;;;2.90;2.20;;;6.10;99.90;;;;;;4874110;29;21765;-84
2023/11/24 00:46:21;;;;;;;3.37;2.00;;;6.20;99.90;;;;;;4871955;29;20029;-84
2023/11/24 00:48:47;;;;;;;3.10;2.10;;;6.20;99.90;;;;;;4871755;29;20100;-84
2023/11/24 00:51:17;;;;;;;4.90;2.70;;;6.30;99.90;;;;;;4872912;29;20031;-84
2023/11/24 00:53:43;;;;;;;3.53;2.20;;;6.20;99.90;;;;;;4873395;29;20035;-84
2023/11/24 00:56:08;;;;;;;2.90;2.10;;;6.40;99.90;;;;;;4874563;29;20041;-84
2023/11/24 00:58:34;;;;;;;3.57;2.30;;;6.50;99.90;;;;;;4874420;29;20687;-84
2023/11/24 01:01:00;;;;;;;3.30;2.40;;;6.40;99.90;;;;;;4874808;29;20092;-84
2023/11/24 01:03:27;;;;;;;4.90;2.40;;;6.40;99.90;;;;;;4875681;29;20045;-84
2023/11/24 01:05:53;;;;;;;4.40;2.87;;;6.40;99.90;;;;;;4875158;29;20033;-85
2023/11/24 01:08:19;;;;;;;2.93;2.30;;;6.30;99.90;;;;;;4874056;29;20485;-84
2023/11/24 01:10:45;;;;;;;5.97;3.40;;;6.30;99.90;;;;;;4876022;29;20067;-85
2023/11/24 01:13:11;;;;;;;4.63;3.00;;;6.20;99.90;;;;;;4876581;29;20064;-84
2023/11/24 01:15:38;;;;;;;4.67;3.07;;;6.10;99.90;;;;;;4873155;29;20032;-84
2023/11/24 01:18:06;;;;;;;8.47;3.67;;;6.20;99.90;;;;;;4875391;29;20086;-84
2023/11/24 01:20:33;;;;;;;5.53;3.30;;;6.10;99.90;;;;;;4875203;29;20037;-85
2023/11/24 01:23:00;;;;;;;5.03;3.50;;;6.10;99.90;;;;;;4875161;29;20636;-84
2023/11/24 01:25:25;;;;;;;4.20;3.20;;;6.10;99.90;;;;;;4874727;29;20060;-84
2023/11/24 01:27:51;;;;;;;5.37;3.37;;;6.10;99.90;;;;;;4875211;29;20461;-84
2023/11/24 01:30:16;;;;;;;4.90;3.67;;;6.00;99.90;;;;;;4874841;29;20545;-84
2023/11/24 01:32:42;;;;;;;5.27;3.63;;;6.00;99.90;;;;;;4878325;29;20044;-85
2023/11/24 01:35:09;;;;;;;5.73;3.50;;;6.00;99.90;;;;;;4880174;29;20036;-84
2023/11/24 01:37:35;;;;;;;5.00;3.23;;;6.10;99.90;;;;;;4879513;29;20183;-84
2023/11/24 01:40:00;;;;;;;4.97;2.90;;;6.10;99.90;;;;;;4875134;29;20060;-84
2023/11/24 01:42:26;;;;;;;5.23;3.30;;;6.10;99.90;;;;;;4875823;29;20040;-84
2023/11/24 01:44:51;;;;;;;4.23;3.23;;;6.10;99.90;;;;;;4873452;29;20125;-84
2023/11/24 01:47:17;;;;;;;4.57;3.60;;;6.00;99.90;;;;;;4874674;29;20068;-84
2023/11/24 01:49:45;;;;;;;6.57;3.13;;;6.00;99.90;;;;;;4875062;29;21658;-84
2023/11/24 01:52:11;;;;;;;5.00;3.57;;;6.10;99.90;;;;;;4874080;29;20037;-84
2023/11/24 01:54:37;;;;;;;5.30;3.43;;;6.10;99.90;;;;;;4870573;29;20025;-84
2023/11/24 01:57:07;;;;;;;4.40;3.47;;;6.10;99.90;;;;;;4871423;29;20097;-84
2023/11/24 01:59:36;;;;;;;4.47;3.50;;;6.20;99.90;;;;;;4870194;29;20363;-84
2023/11/24 02:02:03;;;;;;;5.33;3.37;;;6.10;99.90;;;;;;4871727;29;20057;-84
2023/11/24 02:04:30;;;;;;;4.53;3.50;;;6.10;99.90;;;;;;4873997;29;20048;-84
2023/11/24 02:06:57;;;;;;;4.07;3.27;;;6.10;99.90;;;;;;4871384;29;20025;-85
2023/11/24 02:09:23;;;;;;;4.83;3.50;;;6.10;99.90;;;;;;4873104;29;20029;-84
2023/11/24 02:11:49;;;;;;;6.90;3.53;;;6.20;99.90;;;;;;4877168;29;20041;-84
2023/11/24 02:14:15;;;;;;;4.53;3.30;;;6.20;99.90;;;;;;4876016;29;20721;-85
2023/11/24 02:16:40;;;;;;;4.40;3.20;;;6.10;99.90;;;;;;4875580;29;20132;-85
2023/11/24 02:19:06;;;;;;;4.23;3.43;;;6.20;99.90;;;;;;4875216;29;20029;-84
2023/11/24 02:21:32;;;;;;;5.87;3.60;;;6.30;99.90;;;;;;4875076;29;20369;-85
2023/11/24 02:23:57;;;;;;;4.83;3.73;;;6.10;99.90;;;;;;4875492;29;20029;-84
2023/11/24 02:26:25;;;;;;;5.70;3.70;;;6.00;99.90;;;;;;4876258;29;20049;-84
2023/11/24 02:28:50;;;;;;;6.23;4.10;;;6.00;99.90;;;;;;4875046;29;20045;-84
2023/11/24 02:31:17;;;;;;;8.27;5.10;;;6.00;99.90;;;;;;4874426;29;20112;-85
2023/11/24 02:33:43;;;;;;;5.73;3.97;;;6.00;99.90;;;;;;4875070;29;20028;-84
2023/11/24 02:36:17;;;;;;;4.20;3.40;;;5.90;99.90;;;;;;4874467;29;20144;-84
2023/11/24 02:38:46;;;;;;;6.13;4.20;;;6.00;99.90;;;;;;4874886;29;20061;-84
2023/11/24 02:41:14;;;;;;;5.37;4.17;;;5.90;99.90;;;;;;4876567;29;20029;-83
2023/11/24 02:43:40;;;;;;;4.90;3.77;;;6.00;99.90;;;;;;4875675;29;20390;-85
2023/11/24 02:46:06;;;;;;;5.20;4.20;;;5.90;99.90;;;;;;4874027;29;20101;-84
2023/11/24 02:48:31;;;;;;;5.10;3.80;;;5.90;99.90;;;;;;4874657;29;20044;-84
2023/11/24 02:50:57;;;;;;;5.60;4.60;;;5.90;99.90;;;;;;4876477;29;20072;-84
2023/11/24 02:53:23;;;;;;;5.93;4.40;;;5.80;99.90;;;;;;4878665;29;20120;-84
2023/11/24 02:55:48;;;;;;;5.50;4.50;;;5.80;99.90;;;;;;4877360;29;20044;-85
2023/11/24 02:58:15;;;;;;;5.17;4.17;;;5.80;99.90;;;;;;4879086;29;20542;-84
2023/11/24 03:00:40;;;;;;;6.83;4.90;;;5.80;99.90;;;;;;4891276;29;20044;-84
2023/11/24 03:03:07;;;;;;;5.57;4.10;;;5.70;99.90;;;;;;4896168;29;20705;-84
2023/11/24 03:05:34;;;;;;;6.80;4.60;;;5.80;99.90;;;;;;4888077;29;20426;-83
2023/11/24 03:07:59;;;;;;;6.13;4.47;;;5.70;99.90;;;;;;4876577;29;20525;-84
2023/11/24 03:10:25;;;;;;;6.10;4.43;;;5.70;99.90;;;;;;4875226;29;20037;-84
2023/11/24 03:12:52;;;;;;;5.97;4.53;;;5.70;99.90;;;;;;4875012;29;20033;-84
2023/11/24 03:15:18;;;;;;;9.03;5.63;;;5.60;99.90;;;;;;4875042;29;20044;-84
2023/11/24 03:17:43;;;;;;;8.37;5.07;;;5.70;99.90;;;;;;4875542;29;20604;-84
2023/11/24 03:20:12;;;;;;;8.00;4.47;;;5.70;99.90;;;;;;4876109;29;20163;-84
2023/11/24 03:22:39;;;;;;;7.87;5.30;;;5.80;99.90;;;;;;4875644;29;20164;-85
2023/11/24 03:25:09;;;;;;;7.93;5.13;;;5.80;99.90;;;;;;4874916;29;20033;-85
2023/11/24 03:27:35;;;;;;;7.33;4.87;;;5.80;99.90;;;;;;4871804;29;20045;-84
2023/11/24 03:30:01;;;;;;;8.30;4.67;;;5.90;99.90;;;;;;4871672;29;20096;-84
2023/11/24 03:32:27;;;;;;;6.43;4.70;;;6.00;99.90;;;;;;4872763;29;20031;-84
2023/11/24 03:34:55;;;;;;;7.37;5.00;;;5.90;99.90;;;;;;4872105;29;20036;-85
2023/11/24 03:37:21;;;;;;;7.37;5.07;;;6.00;99.90;;;;;;4871768;29;20377;-84
2023/11/24 03:39:46;;;;;;;5.63;4.03;;;6.00;99.90;;;;;;4872329;29;20032;-84
2023/11/24 03:42:12;;;;;;;6.80;4.70;;;5.90;99.90;;;;;;4871946;29;20052;-85
2023/11/24 03:44:38;;;;;;;5.20;3.73;;;6.00;99.90;;;;;;4871932;29;20037;-85
2023/11/24 03:47:04;;;;;;;7.93;4.53;;;6.10;99.90;;;;;;4871813;29;20037;-85
2023/11/24 03:49:30;;;;;;;6.37;3.80;;;6.10;99.90;;;;;;4872427;29;20037;-84
2023/11/24 03:51:55;;;;;;;5.67;4.37;;;6.10;99.90;;;;;;4872554;29;20080;-84
2023/11/24 03:54:21;;;;;;;5.90;4.17;;;6.10;99.90;;;;;;4873769;29;20033;-84
2023/11/24 03:56:48;;;;;;;5.53;4.20;;;6.10;99.90;;;;;;4874109;29;20115;-84
2023/11/24 03:59:13;;;;;;;5.27;3.93;;;6.20;99.90;;;;;;4871258;29;20480;-85
2023/11/24 04:01:39;;;;;;;4.13;3.40;;;6.20;99.90;;;;;;4869685;29;20069;-84
2023/11/24 04:04:06;;;;;;;4.43;3.40;;;6.20;99.90;;;;;;4872320;29;20029;-84
2023/11/24 04:06:31;;;;;;;4.27;3.50;;;6.20;99.90;;;;;;4871612;29;20025;-84
2023/11/24 04:08:57;;;;;;;5.17;3.93;;;6.20;99.90;;;;;;4871798;29;20047;-85
2023/11/24 04:11:23;;;;;;;5.50;3.87;;;6.30;99.90;;;;;;4873420;29;20029;-84
2023/11/24 04:13:49;;;;;;;4.20;3.13;;;6.40;99.90;;;;;;4872660;29;20504;-84
2023/11/24 04:16:14;;;;;;;7.43;3.73;;;6.30;99.90;;;;;;4872378;29;20517;-84
2023/11/24 04:18:41;;;;;;;4.43;3.40;;;6.40;99.90;;;;;;4873881;29;20036;-84
2023/11/24 04:21:06;;;;;;;5.23;3.30;;;6.40;99.90;;;;;;4872647;29;20104;-84
2023/11/24 04:23:32;;;;;;;4.73;3.27;;;6.40;99.90;;;;;;4873428;29;20029;-84
2023/11/24 04:25:57;;;;;;;3.83;2.87;;;6.40;99.90;;;;;;4869814;29;20077;-84
2023/11/24 04:28:23;;;;;;;3.67;3.00;;;6.50;99.90;;;;;;4871144;29;20037;-85
2023/11/24 04:30:49;;;;;;;4.37;2.93;;;6.60;99.90;;;;;;4870794;29;20029;-85
2023/11/24 04:33:14;;;;;;;4.10;3.17;;;6.50;99.90;;;;;;4873120;29;20033;-85
2023/11/24 04:35:40;;;;;;;4.20;3.00;;;6.40;99.90;;;;;;4874202;29;20029;-85
2023/11/24 04:38:06;;;;;;;5.70;3.20;;;6.50;99.90;;;;;;4873471;29;20033;-85
2023/11/24 04:40:31;;;;;;;3.93;2.93;;;6.40;99.90;;;;;;4872036;29;20033;-85
2023/11/24 04:42:57;;;;;;;4.27;2.93;;;6.40;99.90;;;;;;4872816;29;20033;-85
2023/11/24 04:45:22;;;;;;;3.17;2.60;;;6.40;99.90;;;;;;4872034;29;20057;-85
2023/11/24 04:47:48;;;;;;;3.23;2.40;;;6.40;99.90;;;;;;4873703;29;20475;-86
2023/11/24 04:50:16;;;;;;;4.10;2.83;;;6.40;99.90;;;;;;4874885;29;20057;-85
2023/11/24 04:52:41;;;;;;;4.17;2.73;;;6.40;99.90;;;;;;4874798;29;20029;-85
2023/11/24 04:55:07;;;;;;;3.33;2.80;;;6.40;99.90;;;;;;4876319;29;20033;-85
2023/11/24 04:57:33;;;;;;;3.57;2.80;;;6.40;99.90;;;;;;4877532;29;20029;-85
2023/11/24 05:00:00;;;;;;;3.60;2.50;;;6.30;99.90;;;;;;4877505;29;20037;-86
2023/11/24 05:02:25;;;;;;;3.20;2.33;;;6.30;99.90;;;;;;4873926;29;20041;-85
2023/11/24 05:04:51;;;;;;;3.33;2.70;;;6.40;99.90;;;;;;4873769;29;20072;-85
2023/11/24 05:07:18;;;;;;;3.63;2.50;;;6.30;99.90;;;;;;4873802;29;20025;-86
2023/11/24 05:09:45;;;;;;;4.20;2.37;;;6.30;99.90;;;;;;4873897;29;20064;-85
2023/11/24 05:12:11;;;;;;;4.03;2.97;;;6.30;99.90;;;;;;4873601;29;20037;-85
2023/11/24 05:14:36;;;;;;;3.47;2.80;;;6.30;99.90;;;;;;4874486;29;20509;-85
2023/11/24 05:17:05;;;;;;;3.70;2.93;;;6.30;99.90;;;;;;4872728;29;20029;-86
2023/11/24 05:19:31;;;;;;;3.63;2.87;;;6.30;99.90;;;;;;4871402;29;20737;-87
2023/11/24 05:21:57;;;;;;;4.80;2.97;;;6.20;99.90;;;;;;4870667;29;20037;-86
2023/11/24 05:24:22;;;;;;;5.07;3.17;;;6.20;99.90;;;;;;4873405;29;20129;-86
2023/11/24 05:26:48;;;;;;;3.53;2.73;;;6.10;99.90;;;;;;4871910;29;20047;-85
2023/11/24 05:29:14;;;;;;;5.47;3.50;;;6.10;99.90;;;;;;4869437;29;20609;-85
2023/11/24 05:31:40;;;;;;;4.23;3.07;;;6.10;99.90;;;;;;4872840;29;20040;-86
2023/11/24 05:34:06;;;;;;;4.20;3.10;;;6.10;99.90;;;;;;4872943;29;20029;-86
2023/11/24 05:36:33;;;;;;;4.40;3.27;;;6.00;99.90;;;;;;4873066;29;20025;-86
2023/11/24 05:38:59;;;;;;;8.87;3.43;;;6.10;99.90;;;;;;4872953;29;20028;-85
2023/11/24 05:41:26;;;;;;;4.87;3.63;;;6.10;99.90;;;;;;4874414;29;20033;-85
2023/11/24 05:43:52;;;;;;;3.83;3.23;;;6.10;99.90;;;;;;4872836;29;20041;-85
2023/11/24 05:46:18;;;;;;;5.13;3.70;;;6.10;99.90;;;;;;4872964;29;20040;-85
2023/11/24 05:48:45;;;;;;;4.40;3.33;;;6.10;99.90;;;;;;4872981;29;20041;-85
2023/11/24 05:51:11;;;;;;;4.90;3.53;;;6.10;99.90;;;;;;4872800;29;20039;-86
2023/11/24 05:53:36;;;;;;;5.10;3.87;;;6.20;99.90;;;;;;4873833;29;20029;-84
2023/11/24 05:56:06;;;;;;;4.80;3.80;;;6.20;99.90;;;;;;4873403;29;20029;-83
2023/11/24 05:58:35;;;;;;;4.97;3.60;;;6.30;99.90;;;;;;4885389;29;20033;-84
2023/11/24 06:01:00;;;;;;;6.03;3.57;;;6.30;99.90;;;;;;4895770;29;20025;-84
2023/11/24 06:03:26;;;;;;;5.27;4.03;;;6.30;99.90;;;;;;4894087;29;20308;-84
2023/11/24 06:05:53;;;;;;;4.67;3.70;;;6.40;99.90;;;;;;4880297;29;20045;-83
2023/11/24 06:08:19;;;;;;;7.07;4.20;;;6.40;99.90;;;;;;4870333;29;20062;-83
2023/11/24 06:10:47;;;;;;;5.17;4.17;;;6.40;99.90;;;;;;4868989;29;20033;-84
2023/11/24 06:13:13;;;;;;;5.53;3.83;;;6.40;99.90;;;;;;4873389;29;20089;-83
2023/11/24 06:15:38;;;;;;;5.63;3.67;;;6.40;99.90;;;;;;4871153;29;20033;-83
2023/11/24 06:18:04;;;;;;;5.03;3.57;;;6.50;99.90;;;;;;4875014;29;20032;-83
2023/11/24 06:20:29;;;;;;;4.97;3.80;;;6.50;99.90;;;;;;4871624;29;20063;-83
2023/11/24 06:22:55;;;;;;;4.70;4.00;;;6.50;99.90;;;;;;4873035;29;20037;-84
2023/11/24 06:25:21;;;;;;;6.50;3.93;;;6.60;99.90;;;;;;4871573;29;20115;-84
2023/11/24 06:27:46;;;;;;;5.03;3.87;;;6.50;99.90;;;;;;4875609;29;20073;-84
2023/11/24 06:30:13;;;;;;;4.97;3.80;;;6.60;99.90;;;;;;4873169;29;20037;-83
2023/11/24 06:32:38;;;;;;;5.67;4.40;;;6.60;99.90;;;;;;4872001;29;20050;-83
2023/11/24 06:35:09;;;;;;;6.30;4.00;;;6.60;99.90;;;;;;4871222;29;20040;-83
2023/11/24 06:37:40;;;;;;;5.40;3.73;;;6.60;99.90;;;;;;4872228;29;20152;-83
2023/11/24 06:40:07;;;;;;;5.10;4.00;;;6.60;99.90;;;;;;4871996;29;20112;-83
2023/11/24 06:42:32;;;;;;;4.80;3.67;;;6.70;99.90;;;;;;4867197;29;20040;-82
2023/11/24 06:44:58;;;;;;;6.97;4.10;;;6.70;99.90;;;;;;4867263;29;20045;-83
2023/11/24 06:47:23;;;;;;;4.77;3.87;;;6.80;99.90;;;;;;4867964;29;20033;-83
2023/11/24 06:49:50;;;;;;;5.80;4.17;;;6.80;99.90;;;;;;4867843;29;20021;-83
2023/11/24 06:52:16;;;;;;;8.13;4.57;;;6.80;99.90;;;;;;4868466;29;20083;-84
2023/11/24 06:54:41;;;;;;;6.97;4.70;;;6.70;99.90;;;;;;4869477;29;20033;-83
2023/11/24 06:57:07;;;;;;;5.80;4.17;;;6.70;99.90;;;;;;4869115;29;20021;-83
2023/11/24 06:59:32;;;;;;;6.40;4.43;;;6.70;99.90;;;;;;4867917;29;20127;-83
2023/11/24 07:01:58;;;;;;;7.63;4.53;;;6.70;99.90;;;;;;4869737;29;21391;-83
2023/11/24 07:04:23;;;;;;;7.47;5.23;;;6.70;99.90;;;;;;4870570;29;20048;-84
2023/11/24 07:06:49;;;;;;;7.03;5.17;;;6.60;99.90;;;;;;4869347;29;20074;-83
2023/11/24 07:09:14;;;;;;;9.03;5.30;;;6.60;99.90;;;;;;4867345;29;20045;-83
2023/11/24 07:11:41;;;;;;;6.67;4.77;;;6.60;99.90;;;;;;4870461;29;20290;-83
2023/11/24 07:14:07;;;;;;;9.70;5.37;;;6.60;99.90;;;;;;4867851;29;20059;-83
2023/11/24 07:16:34;;;;;;;7.53;4.90;;;6.60;99.90;;;;;;4869409;29;20045;-83
2023/11/24 07:19:00;;;;;;;6.97;4.97;;;6.60;99.90;;;;;;4870989;29;20029;-84
2023/11/24 07:21:25;;;;;;;6.50;3.30;;;6.60;99.90;;;;;;4872194;29;20020;-83
2023/11/24 07:23:51;;;;;;;4.40;3.00;;;6.50;99.90;;;;;;4874480;29;20131;-84
2023/11/24 07:26:17;;;;;;;5.00;2.83;;;6.20;99.90;;;;;;4874671;29;20036;-84
2023/11/24 07:28:44;;;;;;;10.57;2.53;;;6.00;99.90;;;;;;4873878;29;20068;-84
2023/11/24 07:31:17;;;;;;;8.67;2.00;;;5.90;99.90;;;;;;4871410;29;20048;-84
2023/11/24 07:33:49;;;;;;;5.93;2.13;;;5.70;99.90;;;;;;4872509;29;20071;-84
2023/11/24 07:36:19;;;;;;;5.40;2.17;;;5.50;99.90;;;;;;4870727;29;20045;-83
2023/11/24 07:38:45;;;;;;;4.87;1.90;;;5.40;99.90;;;;;;4872256;29;20032;-83
2023/11/24 07:41:10;;;;;;;9.73;2.27;;;5.30;99.90;;;;;;4873708;29;20425;-84
2023/11/24 07:43:36;;;;;;;5.87;1.90;;;5.20;99.90;;;;;;4871272;29;20033;-83
2023/11/24 07:46:07;;;;;;;8.97;1.80;;;5.10;99.90;;;;;;4868240;29;20029;-83
2023/11/24 07:48:33;;;;;;;8.60;2.23;;;5.10;99.90;;;;;;4870405;29;20101;-83
2023/11/24 07:51:00;;;;;;;3.17;1.67;;;5.00;99.90;;;;;;4869939;29;20444;-83
2023/11/24 07:53:28;;;;;;;7.53;1.87;;;4.90;99.90;;;;;;4869612;29;20048;-83
2023/11/24 07:55:55;;;;;;;12.40;2.13;;;4.80;99.90;;;;;;4873139;29;20036;-83
2023/11/24 07:58:20;;;;;;;8.73;2.10;;;4.70;99.90;;;;;;4876583;29;20036;-82
2023/11/24 08:00:46;;;;;;;8.87;2.40;;;4.70;99.90;;;;;;4875932;29;20037;-83
2023/11/24 08:03:13;;;;;;;11.37;2.20;;;4.70;99.90;;;;;;4875997;29;20040;-83
2023/11/24 08:05:39;;;;;;;6.67;2.23;;;4.70;99.90;;;;;;4875183;29;20080;-84
2023/11/24 08:08:05;;;;;;;6.90;1.63;;;4.70;99.90;;;;;;4874392;29;20044;-83
2023/11/24 08:10:31;;;;;;;9.87;1.73;;;4.70;99.90;;;;;;4876080;29;20037;-82
2023/11/24 08:12:57;;;;;;;7.70;1.60;;;4.70;99.90;;;;;;4875067;29;20036;-83
2023/11/24 08:15:23;;;;;;;8.43;2.10;;;4.70;99.90;;;;;;4876474;29;20029;-82
2023/11/24 08:17:49;;;;;;;6.73;1.80;;;4.60;99.90;;;;;;4877723;29;20046;-82
2023/11/24 08:20:15;;;;;;;7.00;1.57;;;4.60;99.90;;;;;;4877083;29;20041;-83
2023/11/24 08:22:40;;;;;;;5.60;1.60;;;4.60;99.90;;;;;;4874035;29;20049;-82
2023/11/24 08:25:08;;;;;;;7.73;2.10;;;4.60;99.90;;;;;;4872547;29;20033;-83
2023/11/24 08:27:35;;;;;;;4.03;1.77;;;4.60;99.90;;;;;;4873103;29;20030;-82
2023/11/24 08:30:03;;;;;;;6.30;1.30;;;4.60;99.90;;;;;;4874733;29;20046;-83
2023/11/24 08:32:28;;;;;;;5.80;1.60;;;4.70;99.90;;;;;;4875505;29;20125;-82
2023/11/24 08:34:54;;;;;;;7.93;1.63;;;4.70;99.90;;;;;;4876521;29;20033;-83
2023/11/24 08:37:20;;;;;;;6.00;1.67;;;4.70;99.90;;;;;;4877480;29;20064;-83
2023/11/24 08:39:46;;;;;;;5.37;1.80;;;4.70;99.90;;;;;;4878264;29;21283;-82
2023/11/24 08:42:11;;;;;;;2.93;1.33;;;4.70;99.90;;;;;;4877021;29;20029;-82
2023/11/24 08:44:37;;;;;;;6.37;1.90;;;4.70;99.90;;;;;;4874893;29;20104;-83
2023/11/24 08:47:03;;;;;;;4.70;1.47;;;4.70;99.90;;;;;;4874652;29;20040;-83
2023/11/24 08:49:29;;;;;;;10.77;2.10;;;4.70;99.90;;;;;;4872716;29;20091;-83
2023/11/24 08:51:55;;;;;;;6.27;1.87;;;4.60;99.90;;;;;;4872907;29;20354;-83
2023/11/24 08:54:22;;;;;;;7.87;2.10;;;4.70;99.90;;;;;;4878864;29;20116;-83
2023/11/24 08:56:48;;;;;;;6.23;1.80;;;4.70;99.90;;;;;;4899823;29;20021;-83
2023/11/24 08:59:13;;;;;;;4.03;1.63;;;4.70;99.90;;;;;;4897209;29;20054;-82
2023/11/24 09:01:39;;;;;;;5.47;1.70;;;4.70;99.90;;;;;;4876969;29;20179;-83
2023/11/24 09:04:05;;;;;;;6.57;2.00;;;4.70;99.90;;;;;;4873506;29;20035;-83
2023/11/24 09:06:36;;;;;;;7.73;1.70;;;4.70;99.90;;;;;;4874665;29;20025;-83
2023/11/24 09:09:06;;;;;;;10.23;2.50;;;4.70;99.90;;;;;;4874667;29;20037;-82
2023/11/24 09:11:32;;;;;;;5.53;1.83;;;4.80;99.90;;;;;;4873631;29;20037;-82
2023/11/24 09:13:57;;;;;;;8.97;2.20;;;4.80;99.90;;;;;;4875672;29;20057;-82
2023/11/24 09:16:23;;;;;;;11.00;1.93;;;4.80;99.90;;;;;;4875501;29;20504;-83
2023/11/24 09:18:50;;;;;;;14.27;3.30;;;4.70;99.90;;;;;;4874802;29;20037;-82
2023/11/24 09:21:17;;;;;;;9.40;2.33;;;4.70;99.90;;;;;;4873171;29;20051;-83
2023/11/24 09:23:43;;;;;;;10.30;2.73;;;4.70;99.90;;;;;;4871158;29;20048;-83
2023/11/24 09:26:09;;;;;;;12.63;2.20;;;4.70;99.90;;;;;;4871710;29;20389;-83
2023/11/24 09:28:36;;;;;;;10.30;2.33;;;4.70;99.90;;;;;;4873425;29;20522;-83
2023/11/24 09:31:08;;;;;;;11.60;2.23;;;4.60;99.90;;;;;;4871271;29;20030;-83
2023/11/24 09:33:37;;;;;;;8.90;2.40;;;4.60;99.90;;;;;;4871508;29;20033;-82
2023/11/24 09:36:04;;;;;;;7.50;2.13;;;4.50;99.90;;;;;;4870242;29;20033;-83
2023/11/24 09:38:29;;;;;;;11.07;2.70;;;4.50;99.90;;;;;;4870811;29;20044;-82
2023/11/24 09:41:05;;;;;;;11.80;2.30;;;4.50;99.90;;;;;;4873087;29;20025;-82
2023/11/24 09:43:31;;;;;;;11.40;2.70;;;4.40;99.90;;;;;;4871580;29;20037;-82
2023/11/24 09:45:56;;;;;;;6.70;2.00;;;4.40;99.90;;;;;;4872812;29;20044;-83
2023/11/24 09:48:23;;;;;;;9.93;2.53;;;4.40;99.90;;;;;;4870450;29;20489;-83
2023/11/24 09:50:50;;;;;;;12.50;2.30;;;4.50;99.90;;;;;;4861816;29;20422;-83
2023/11/24 09:53:18;;;;;;;10.73;1.97;;;4.40;99.90;;;;;;4860492;29;20025;-83
2023/11/24 09:55:44;;;;;;;7.23;2.40;;;4.40;99.90;;;;;;4858905;29;20936;-84
2023/11/24 09:58:09;;;;;;;12.80;2.30;;;4.40;99.90;;;;;;4859935;29;20069;-84
2023/11/24 10:00:35;;;;;;;8.53;1.90;;;4.30;99.90;;;;;;4859014;29;20037;-84
2023/11/24 10:03:06;;;;;;;7.70;1.97;;;4.30;99.90;;;;;;4859273;29;20376;-83
2023/11/24 10:05:32;;;;;;;8.03;2.03;;;4.30;99.90;;;;;;4856077;29;20035;-84
2023/11/24 10:07:59;;;;;;;6.83;2.20;;;4.20;99.90;;;;;;4854229;29;20044;-84
2023/11/24 10:10:25;;;;;;;7.13;2.10;;;4.30;99.90;;;;;;4855994;29;20120;-83
2023/11/24 10:12:59;;;;;;;7.37;2.10;;;4.20;99.90;;;;;;4858185;29;20071;-84
2023/11/24 10:15:25;;;;;;;10.37;2.10;;;4.20;99.90;;;;;;4857797;29;20066;-84
2023/11/24 10:17:51;;;;;;;6.93;1.80;;;4.20;99.90;;;;;;4857065;29;20917;-84
2023/11/24 10:20:22;;;;;;;11.33;2.27;;;4.20;99.90;;;;;;4861807;29;21252;-83
2023/11/24 10:22:52;;;;;;;4.33;1.50;;;4.20;99.90;;;;;;4860188;29;20053;-83
2023/11/24 10:25:22;;;;;;;8.87;1.83;;;4.10;99.90;;;;;;4862815;29;20081;-83
2023/11/24 10:27:48;;;;;;;7.07;2.10;;;4.20;99.90;;;;;;4872227;29;20058;-83
2023/11/24 10:30:17;;;;;;;8.00;2.07;;;4.10;99.90;;;;;;4874153;29;20604;-83
2023/11/24 10:32:45;;;;;;;6.30;1.87;;;4.10;99.90;;;;;;4871340;29;20052;-83
2023/11/24 10:35:12;;;;;;;7.87;2.10;;;4.00;99.90;;;;;;4874654;29;20029;-82
2023/11/24 10:37:39;;;;;;;7.87;2.40;;;4.00;99.90;;;;;;4876142;29;20047;-81
2023/11/24 10:40:11;;;;;;;6.27;2.00;;;4.10;99.90;;;;;;4872590;29;20572;-83
2023/11/24 10:42:39;;;;;;;7.23;1.87;;;4.00;99.90;;;;;;4874938;29;20437;-83
2023/11/24 10:45:10;;;;;;;6.10;1.93;;;4.10;99.90;;;;;;4873695;29;20062;-83
2023/11/24 10:47:43;;;;;;;6.33;1.60;;;4.10;99.90;;;;;;4873403;29;21283;-84
2023/11/24 10:50:15;;;;;;;7.57;2.10;;;4.10;99.90;;;;;;4875720;29;20097;-83
2023/11/24 10:52:48;;;;;;;6.33;1.63;;;4.10;99.90;;;;;;4873482;29;20029;-84
2023/11/24 10:55:15;;;;;;;6.93;2.83;;;4.10;99.90;;;;;;4872464;29;20488;-84
2023/11/24 10:57:41;;;;;;;9.70;2.20;;;4.10;99.90;;;;;;4873019;29;20943;-84
2023/11/24 11:00:08;;;;;;;5.73;2.20;;;4.20;99.90;;;;;;4875374;29;20043;-84
2023/11/24 11:02:39;;;;;;;7.03;1.70;;;4.20;99.90;;;;;;4874112;29;20151;-84
2023/11/24 11:05:50;;;;;;;5.97;1.70;;;4.20;99.90;;;;;;4873742;29;20937;-84
2023/11/24 11:08:37;;;;;;;6.20;2.20;;;4.30;99.90;;;;;;4872407;29;20163;-84
2023/11/24 11:11:06;;;;;;;4.27;1.67;;;4.30;99.90;;;;;;4875548;29;20409;-83
2023/11/24 11:13:40;;;;;;;5.07;2.40;;;4.30;99.90;;;;;;4873596;29;20041;-84
2023/11/24 11:16:12;;;;;;;5.07;2.10;;;4.30;99.90;;;;;;4875116;29;20101;-84
2023/11/24 11:18:38;;;;;;;5.40;2.00;;;4.30;99.90;;;;;;4871701;29;20265;-84
2023/11/24 11:21:20;;;;;;;5.07;2.10;;;4.40;99.90;;;;;;4873203;29;20029;-84
2023/11/24 11:23:56;;;;;;;7.70;3.37;;;4.50;99.90;;;;;;4872703;29;20037;-84
2023/11/24 11:26:45;;;;;;;7.73;2.70;;;4.50;99.90;;;;;;4872682;29;20064;-85
2023/11/24 11:29:23;;;;;;;8.63;2.20;;;4.50;99.90;;;;;;4874842;29;20116;-83
2023/11/24 11:31:51;;;;;;;8.00;2.40;;;4.50;99.90;;;;;;4874690;29;20105;-83
2023/11/24 11:34:19;;;;;;;4.73;1.83;;;4.60;99.90;;;;;;4876621;29;20037;-84
2023/11/24 11:36:50;;;;;;;4.03;1.80;;;4.60;99.90;;;;;;4873879;29;20092;-84
2023/11/24 11:39:27;;;;;;;6.97;2.47;;;4.60;99.90;;;;;;4871736;29;20093;-84
2023/11/24 11:41:55;;;;;;;9.33;2.10;;;4.60;99.90;;;;;;4870923;29;20058;-85
2023/11/24 11:44:23;;;;;;;5.80;1.87;;;4.60;99.90;;;;;;4871481;29;20069;-84
2023/11/24 11:47:17;;;;;;;5.97;2.10;;;4.70;99.90;;;;;;4872341;29;20052;-85
2023/11/24 11:49:43;;;;;;;7.20;2.43;;;4.70;99.90;;;;;;4872394;29;20033;-85
2023/11/24 11:52:11;;;;;;;10.80;2.23;;;4.70;99.90;;;;;;4878383;29;20092;-85
2023/11/24 11:54:38;;;;;;;5.10;2.10;;;4.70;99.90;;;;;;4891098;29;20029;-86
2023/11/24 11:57:05;;;;;;;5.30;1.90;;;4.60;99.90;;;;;;4894461;29;20029;-84
2023/11/24 11:59:30;;;;;;;5.40;1.40;;;4.60;99.90;;;;;;4878658;29;20072;-84
2023/11/24 12:01:57;;;;;;;6.70;1.90;;;4.60;99.90;;;;;;4870875;29;20045;-85
2023/11/24 12:04:24;;;;;;;4.27;1.40;;;4.50;99.90;;;;;;4869349;29;20025;-86
2023/11/24 12:06:53;;;;;;;2.43;1.20;;;4.30;99.90;;;;;;4866808;29;20033;-85
2023/11/24 12:09:19;;;;;;;3.57;1.10;;;4.20;99.90;;;;;;4873581;29;20429;-85
2023/11/24 12:11:45;;;;;;;4.33;1.13;;;4.10;99.90;;;;;;4874796;29;20729;-84
2023/11/24 12:14:14;;;;;;;2.57;1.20;;;4.00;99.90;;;;;;4874660;29;20044;-85
2023/11/24 12:16:40;;;;;;;4.77;2.17;;;3.80;99.90;;;;;;4872332;29;20029;-85
2023/11/24 12:19:07;;;;;;;5.37;2.43;;;3.80;99.90;;;;;;4872454;29;20028;-86
2023/11/24 12:21:35;;;;;;;3.90;1.33;;;3.80;99.90;;;;;;4871689;29;20029;-86
2023/11/24 12:24:02;;;;;;;3.87;1.40;;;3.70;99.90;;;;;;4870663;29;20106;-84
2023/11/24 12:26:28;;;;;;;4.97;2.50;;;3.70;99.90;;;;;;4871959;29;20826;-85
2023/11/24 12:28:57;;;;;;;2.83;2.07;;;3.70;99.90;;;;;;4872358;29;20030;-85
2023/11/24 12:31:29;;;;;;;5.87;2.90;;;3.70;99.90;;;;;;4874097;29;20063;-85
2023/11/24 12:33:55;;;;;;;4.97;2.07;;;3.70;99.90;;;;;;4871749;29;20154;-85
2023/11/24 12:36:23;;;;;;;8.70;2.20;;;3.80;99.90;;;;;;4872618;29;20457;-84
2023/11/24 12:38:49;;;;;;;3.30;1.53;;;3.80;99.90;;;;;;4871045;29;20059;-85
2023/11/24 12:41:17;;;;;;;4.07;1.57;;;3.80;99.90;;;;;;4858011;29;20040;-85
2023/11/24 12:43:50;;;;;;;3.90;1.90;;;3.80;99.90;;;;;;4859093;29;20047;-85
2023/11/24 12:46:20;;;;;;;11.83;3.90;;;3.90;99.90;;;;;;4860366;29;20085;-86
2023/11/24 12:48:47;;;;;;;4.93;1.70;;;3.90;99.90;;;;;;4858212;29;20044;-85
2023/11/24 12:51:14;;;;;;;6.83;2.10;;;4.00;99.90;;;;;;4860471;29;20041;-83
2023/11/24 12:53:40;;;;;;;10.33;2.30;;;4.00;99.90;;;;;;4859194;29;20068;-85